Time;durP1;ratioP1;P1;durP2;ratioP2;P2;SDS_P1;SDS_P2;PMS_P1;PMS_P2;Temp;Humidity;BMP_temperature;BMP_pressure;BME280_temperature;BME280_humidity;BME280_pressure;Samples;Min_cycle;Max_cycle;Signal;HPM_P1;HPM_P2
2023/07/25 00:02:18;;;;;;;7.63;1.85;;;;;;;18.70;100.00;99349.13;5106952;28;20510;-74
2023/07/25 00:04:43;;;;;;;6.55;1.38;;;;;;;18.54;100.00;99325.84;5091319;28;20036;-74
2023/07/25 00:07:09;;;;;;;7.03;0.98;;;;;;;18.38;100.00;99308.06;5085455;28;20028;-75
2023/07/25 00:09:34;;;;;;;5.63;1.10;;;;;;;18.49;100.00;99325.91;5072662;28;20429;-74
2023/07/25 00:12:00;;;;;;;9.15;1.80;;;;;;;18.48;100.00;99327.03;5056017;28;20482;-74
2023/07/25 00:14:25;;;;;;;9.95;1.25;;;;;;;18.63;100.00;99345.13;5087678;28;20062;-74
2023/07/25 00:16:50;;;;;;;3.97;0.98;;;;;;;18.59;100.00;99344.88;5088076;28;20031;-74
2023/07/25 00:19:16;;;;;;;8.45;1.73;;;;;;;18.59;100.00;99354.97;5064189;28;20039;-74
2023/07/25 00:21:41;;;;;;;3.47;1.10;;;;;;;18.62;100.00;99355.19;5091050;28;20066;-75
2023/07/25 00:24:07;;;;;;;4.93;1.30;;;;;;;18.63;100.00;99350.56;5108191;28;20055;-75
2023/07/25 00:26:32;;;;;;;10.13;1.55;;;;;;;18.71;100.00;99358.13;5090695;28;20118;-74
2023/07/25 00:28:58;;;;;;;7.45;1.85;;;;;;;18.73;100.00;99345.03;5094575;28;20028;-75
2023/07/25 00:31:23;;;;;;;6.68;1.25;;;;;;;18.61;100.00;99347.31;5095115;28;20040;-75
2023/07/25 00:33:48;;;;;;;7.18;1.30;;;;;;;18.66;100.00;99348.06;5073105;28;20376;-74
2023/07/25 00:36:14;;;;;;;6.15;1.50;;;;;;;18.70;100.00;99359.22;5071860;28;20028;-75
2023/07/25 00:38:40;;;;;;;6.97;1.45;;;;;;;18.66;100.00;99350.78;5070979;28;20479;-74
2023/07/25 00:41:05;;;;;;;5.60;1.63;;;;;;;18.68;100.00;99354.06;5056025;28;20040;-75
2023/07/25 00:43:30;;;;;;;5.90;1.30;;;;;;;18.72;100.00;99346.94;5087137;28;20071;-75
2023/07/25 00:45:56;;;;;;;8.32;1.60;;;;;;;18.68;100.00;99353.25;5070023;28;20558;-74
2023/07/25 00:48:22;;;;;;;6.80;1.42;;;;;;;18.66;100.00;99358.97;5069644;28;20473;-74
2023/07/25 00:50:47;;;;;;;7.20;1.50;;;;;;;18.66;100.00;99341.81;5087456;28;20029;-74
2023/07/25 00:53:14;;;;;;;3.92;1.20;;;;;;;18.68;100.00;99350.53;5087253;28;20044;-74
2023/07/25 00:55:40;;;;;;;4.90;1.35;;;;;;;18.64;100.00;99350.28;5071314;28;20025;-75
2023/07/25 00:58:05;;;;;;;5.15;1.05;;;;;;;18.68;100.00;99354.06;5086653;28;20550;-75
2023/07/25 01:00:31;;;;;;;7.45;1.40;;;;;;;18.65;100.00;99351.91;5083620;28;20028;-74
2023/07/25 01:02:56;;;;;;;6.25;1.50;;;;;;;18.57;100.00;99347.06;5068544;28;20092;-75
2023/07/25 01:05:22;;;;;;;4.63;1.20;;;;;;;18.39;100.00;99345.09;5068865;28;20043;-75
2023/07/25 01:07:48;;;;;;;8.35;1.40;;;;;;;18.50;100.00;99347.41;5072294;28;20031;-74
2023/07/25 01:10:14;;;;;;;3.95;1.10;;;;;;;18.48;100.00;99357.78;5106079;28;20020;-74
2023/07/25 01:12:40;;;;;;;3.17;1.00;;;;;;;18.49;100.00;99353.16;5091177;28;20424;-75
2023/07/25 01:15:06;;;;;;;7.28;1.27;;;;;;;18.37;100.00;99350.00;5089647;28;20153;-75
2023/07/25 01:17:32;;;;;;;3.33;0.93;;;;;;;18.34;100.00;99345.91;5080921;28;20012;-74
2023/07/25 01:19:58;;;;;;;3.33;1.10;;;;;;;18.35;100.00;99341.31;5069142;28;20032;-74
2023/07/25 01:22:26;;;;;;;3.78;1.10;;;;;;;18.44;100.00;99353.19;5063771;28;20071;-75
2023/07/25 01:24:54;;;;;;;4.07;1.13;;;;;;;18.48;100.00;99357.78;5089429;28;20016;-74
2023/07/25 01:27:20;;;;;;;4.05;1.40;;;;;;;18.30;100.00;99326.63;5091046;28;20024;-75
2023/07/25 01:29:45;;;;;;;7.22;1.30;;;;;;;18.36;100.00;99337.47;5090842;28;20035;-75
2023/07/25 01:32:11;;;;;;;6.25;1.38;;;;;;;18.47;100.00;99361.59;5086771;28;20451;-74
2023/07/25 01:34:37;;;;;;;7.85;1.60;;;;;;;18.46;100.00;99351.00;5075088;28;20028;-75
2023/07/25 01:37:03;;;;;;;6.53;1.90;;;;;;;18.42;100.00;99349.97;5071397;28;20118;-75
2023/07/25 01:39:28;;;;;;;4.43;1.40;;;;;;;18.48;100.00;99356.97;5089450;28;20028;-74
2023/07/25 01:41:54;;;;;;;4.07;1.30;;;;;;;18.30;100.00;99332.06;5089457;28;20046;-74
2023/07/25 01:44:19;;;;;;;4.28;1.30;;;;;;;18.33;100.00;99338.06;5082696;28;20027;-75
2023/07/25 01:46:45;;;;;;;4.20;1.50;;;;;;;18.44;100.00;99348.56;5087270;28;20036;-75
2023/07/25 01:49:11;;;;;;;5.45;1.55;;;;;;;18.44;100.00;99353.19;5080465;28;20064;-74
2023/07/25 01:51:37;;;;;;;8.50;2.25;;;;;;;18.43;100.00;99352.38;5062258;28;20028;-75
2023/07/25 01:54:03;;;;;;;4.55;1.58;;;;;;;18.41;100.00;99357.31;5080843;28;20115;-75
2023/07/25 01:56:29;;;;;;;4.40;1.52;;;;;;;18.41;100.00;99354.59;5075191;28;20020;-75
2023/07/25 01:58:54;;;;;;;6.05;1.42;;;;;;;18.25;100.00;99334.84;5078358;28;20077;-75
2023/07/25 02:01:19;;;;;;;8.85;1.80;;;;;;;18.34;100.00;99356.81;5082799;28;20482;-75
2023/07/25 02:03:45;;;;;;;7.40;2.20;;;;;;;18.31;100.00;99346.53;5085061;28;20422;-74
2023/07/25 02:06:10;;;;;;;11.02;2.35;;;;;;;18.23;100.00;99341.66;5090198;28;20387;-75
2023/07/25 02:08:36;;;;;;;9.82;2.58;;;;;;;18.32;100.00;99348.13;5087734;28;20035;-74
2023/07/25 02:11:01;;;;;;;14.57;2.50;;;;;;;18.30;100.00;99347.59;5089394;28;20465;-75
2023/07/25 02:13:26;;;;;;;13.63;2.83;;;;;;;18.33;100.00;99344.31;5089397;28;20538;-75
2023/07/25 02:15:52;;;;;;;14.82;3.30;;;;;;;18.36;100.00;99345.66;5090014;28;20025;-75
2023/07/25 02:18:18;;;;;;;17.25;3.33;;;;;;;18.32;100.00;99331.78;5079226;28;20020;-75
2023/07/25 02:20:45;;;;;;;19.80;3.55;;;;;;;18.39;100.00;99350.53;5062173;28;20378;-75
2023/07/25 02:23:11;;;;;;;18.80;3.25;;;;;;;18.41;100.00;99346.44;5081820;28;20051;-74
2023/07/25 02:25:36;;;;;;;19.58;3.35;;;;;;;18.50;100.00;99347.41;5060570;28;20466;-74
2023/07/25 02:28:02;;;;;;;22.52;3.13;;;;;;;18.56;100.00;99356.34;5075412;28;20039;-74
2023/07/25 02:30:28;;;;;;;15.95;3.30;;;;;;;18.49;100.00;99339.53;5066731;28;20028;-75
2023/07/25 02:32:54;;;;;;;14.35;3.55;;;;;;;18.61;100.00;99342.69;5089517;28;20169;-74
2023/07/25 02:35:20;;;;;;;17.48;3.55;;;;;;;18.64;100.00;99346.72;5085872;28;20108;-75
2023/07/25 02:37:45;;;;;;;15.57;3.85;;;;;;;18.65;100.00;99341.00;5080757;28;20032;-75
2023/07/25 02:40:11;;;;;;;16.13;3.78;;;;;;;18.64;100.00;99341.28;5080824;28;20028;-75
2023/07/25 02:42:36;;;;;;;25.55;3.92;;;;;;;18.57;100.00;99322.56;5075089;28;20487;-75
2023/07/25 02:45:02;;;;;;;20.15;3.72;;;;;;;18.62;100.00;99329.88;5080497;28;20032;-75
2023/07/25 02:47:27;;;;;;;27.02;4.20;;;;;;;18.58;100.00;99329.66;5088229;28;20405;-75
2023/07/25 02:49:53;;;;;;;15.32;3.78;;;;;;;18.68;100.00;99345.88;5086585;28;20049;-75
2023/07/25 02:52:19;;;;;;;19.35;3.83;;;;;;;18.70;100.00;99338.22;5080073;28;20429;-75
2023/07/25 02:54:45;;;;;;;21.08;3.63;;;;;;;18.72;100.00;99337.97;5089758;28;20111;-75
2023/07/25 02:57:10;;;;;;;22.20;3.90;;;;;;;18.78;100.00;99347.72;5083767;28;20111;-75
2023/07/25 02:59:36;;;;;;;22.00;3.70;;;;;;;18.80;100.00;99348.22;5086666;28;20455;-74
2023/07/25 03:02:01;;;;;;;21.20;3.15;;;;;;;18.71;100.00;99337.13;5093211;28;20033;-74
2023/07/25 03:04:28;;;;;;;27.88;4.18;;;;;;;18.54;100.00;99314.94;5089756;28;20031;-75
2023/07/25 03:06:54;;;;;;;18.63;4.00;;;;;;;18.73;100.00;99351.28;5081791;28;20031;-75
2023/07/25 03:09:19;;;;;;;20.95;4.38;;;;;;;18.76;100.00;99349.91;5055092;28;20324;-75
2023/07/25 03:11:44;;;;;;;27.58;4.72;;;;;;;18.67;100.00;99330.63;5073843;28;20835;-75
2023/07/25 03:14:10;;;;;;;28.70;4.15;;;;;;;18.73;100.00;99343.13;5055892;28;20070;-74
2023/07/25 03:16:35;;;;;;;23.05;4.70;;;;;;;18.76;100.00;99339.00;5072206;28;20039;-75
2023/07/25 03:19:01;;;;;;;20.77;4.40;;;;;;;18.61;100.00;99318.16;5054463;28;20037;-75
2023/07/25 03:21:26;;;;;;;25.70;4.20;;;;;;;18.74;100.00;99341.19;5071095;28;20645;-75
2023/07/25 03:23:51;;;;;;;25.58;4.72;;;;;;;18.70;100.00;99332.75;5070738;28;20074;-74
2023/07/25 03:26:17;;;;;;;20.60;4.50;;;;;;;18.69;100.00;99350.22;5058501;28;20043;-74
2023/07/25 03:28:43;;;;;;;20.35;4.80;;;;;;;18.80;100.00;99341.97;5093222;28;20012;-75
2023/07/25 03:31:08;;;;;;;19.73;3.90;;;;;;;18.44;100.00;99293.28;5084093;28;20433;-75
2023/07/25 03:33:33;;;;;;;26.15;4.75;;;;;;;18.76;100.00;99333.56;5097211;28;20074;-75
2023/07/25 03:35:59;;;;;;;21.67;4.18;;;;;;;18.71;100.00;99315.34;5092094;28;20148;-74
2023/07/25 03:38:24;;;;;;;21.67;4.07;;;;;;;18.85;100.00;99341.94;5076249;28;20032;-75
2023/07/25 03:40:50;;;;;;;19.45;4.10;;;;;;;18.76;100.00;99336.28;5069773;28;20123;-75
2023/07/25 03:43:15;;;;;;;21.90;4.60;;;;;;;18.87;100.00;99335.06;5070790;28;20036;-75
2023/07/25 03:45:40;;;;;;;22.85;4.30;;;;;;;18.90;100.00;99337.22;5063429;28;20033;-75
2023/07/25 03:48:06;;;;;;;22.20;4.40;;;;;;;18.94;100.00;99340.16;5065284;28;20052;-75
2023/07/25 03:50:31;;;;;;;29.73;4.43;;;;;;;18.97;100.00;99340.44;5092548;28;20470;-75
2023/07/25 03:52:58;;;;;;;26.33;4.88;;;;;;;18.87;100.00;99331.53;5091049;28;20028;-75
2023/07/25 03:55:24;;;;;;;20.08;3.88;;;;;;;18.94;100.00;99351.91;5084108;28;20024;-75
2023/07/25 03:57:50;;;;;;;23.95;3.97;;;;;;;18.97;100.00;99337.69;5077654;28;20033;-74
2023/07/25 04:00:16;;;;;;;19.77;3.92;;;;;;;18.88;100.00;99335.91;5088556;28;20035;-74
2023/07/25 04:02:41;;;;;;;20.10;4.30;;;;;;;18.89;100.00;99348.41;5081618;28;20056;-75
2023/07/25 04:05:07;;;;;;;20.23;4.22;;;;;;;18.90;100.00;99342.66;5077843;28;20475;-74
2023/07/25 04:07:34;;;;;;;22.35;3.85;;;;;;;18.93;100.00;99349.44;5090700;28;20483;-75
2023/07/25 04:09:59;;;;;;;25.30;4.15;;;;;;;18.92;100.00;99347.84;5095203;28;20028;-74
2023/07/25 04:12:25;;;;;;;25.60;4.45;;;;;;;18.90;100.00;99347.31;5095072;28;20037;-74
2023/07/25 04:14:50;;;;;;;19.98;4.00;;;;;;;18.88;100.00;99342.16;5071678;28;20082;-75
2023/07/25 04:17:16;;;;;;;20.48;4.25;;;;;;;18.98;100.00;99349.41;5071954;28;20039;-77
2023/07/25 04:19:41;;;;;;;17.40;3.67;;;;;;;18.82;100.00;99324.25;5070141;28;20109;-75
2023/07/25 04:22:07;;;;;;;21.98;3.92;;;;;;;18.89;100.00;99348.41;5071229;28;20538;-74
2023/07/25 04:24:32;;;;;;;18.30;3.60;;;;;;;18.87;100.00;99328.81;5074832;28;20025;-74
2023/07/25 04:26:57;;;;;;;25.98;4.55;;;;;;;19.05;100.00;99354.50;5090087;28;20481;-75
2023/07/25 04:29:23;;;;;;;18.92;4.15;;;;;;;19.05;100.00;99346.34;5066599;28;20379;-75
2023/07/25 04:31:48;;;;;;;20.33;4.15;;;;;;;18.94;100.00;99351.06;5079314;28;20407;-74
2023/07/25 04:34:14;;;;;;;25.02;4.72;;;;;;;19.03;100.00;99360.25;5069770;28;20055;-74
2023/07/25 04:36:40;;;;;;;19.02;3.95;;;;;;;19.09;100.00;99358.28;5070095;28;20036;-75
2023/07/25 04:39:05;;;;;;;22.52;4.18;;;;;;;19.08;100.00;99353.94;5069676;28;20090;-74
2023/07/25 04:41:30;;;;;;;17.75;3.78;;;;;;;19.05;100.00;99349.88;5080640;28;20030;-74
2023/07/25 04:43:56;;;;;;;22.05;4.47;;;;;;;19.32;100.00;99351.19;5068737;28;20033;-74
2023/07/25 04:46:21;;;;;;;19.75;3.95;;;;;;;19.47;100.00;99353.72;5089132;28;20441;-74
2023/07/25 04:48:49;;;;;;;23.38;4.43;;;;;;;19.91;100.00;99349.84;5086272;28;20048;-74
2023/07/25 04:51:14;;;;;;;23.08;4.30;;;;;;;19.64;100.00;99354.03;5097729;28;20089;-75
2023/07/25 04:53:39;;;;;;;22.42;4.45;;;;;;;19.65;100.00;99361.13;5081441;28;20031;-74
2023/07/25 04:56:05;;;;;;;16.80;3.90;;;;;;;19.68;100.00;99362.47;5089632;28;20522;-75
2023/07/25 04:58:31;;;;;;;19.48;4.90;;;;;;;19.76;100.00;99361.78;5095869;28;20063;-74
2023/07/25 05:00:56;;;;;;;20.33;4.45;;;;;;;20.03;100.00;99355.63;5082169;28;20033;-73
2023/07/25 05:03:21;;;;;;;17.65;4.10;;;;;;;19.90;100.00;99365.41;5071458;28;20475;-74
2023/07/25 05:05:51;;;;;;;24.67;4.78;;;;;;;19.77;100.00;99366.16;5056173;28;20145;-74
2023/07/25 05:08:17;;;;;;;19.67;4.53;;;;;;;19.79;100.00;99374.03;5080537;28;20032;-74
2023/07/25 05:10:42;;;;;;;23.60;4.07;;;;;;;19.70;100.00;99363.78;5052088;28;20055;-74
2023/07/25 05:13:07;;;;;;;16.90;4.68;;;;;;;19.67;100.00;99372.56;5080510;28;20039;-74
2023/07/25 05:15:33;;;;;;;16.92;4.20;;;;;;;19.70;100.00;99369.25;5085862;28;20016;-73
2023/07/25 05:17:59;;;;;;;16.77;4.05;;;;;;;19.75;100.00;99368.34;5088252;28;20028;-74
2023/07/25 05:20:24;;;;;;;19.60;4.03;;;;;;;19.76;100.00;99372.69;5071719;28;20067;-73
2023/07/25 05:22:49;;;;;;;20.15;4.25;;;;;;;19.68;100.00;99370.63;5087176;28;20027;-73
2023/07/25 05:25:15;;;;;;;20.60;4.35;;;;;;;19.68;100.00;99379.63;5073130;28;20044;-74
2023/07/25 05:27:40;;;;;;;19.20;4.28;;;;;;;19.69;100.00;99386.72;5089154;28;20036;-74
2023/07/25 05:30:06;;;;;;;15.43;4.25;;;;;;;19.55;100.00;99383.06;5077574;28;20036;-74
2023/07/25 05:32:31;;;;;;;19.83;4.47;;;;;;;19.67;100.00;99375.28;5075212;28;20044;-74
2023/07/25 05:34:57;;;;;;;18.95;3.83;;;;;;;19.74;100.00;99385.03;5074664;28;20471;-73
2023/07/25 05:37:23;;;;;;;18.75;3.88;;;;;;;20.15;98.46;99391.50;5076405;28;20063;-73
2023/07/25 05:39:51;;;;;;;17.90;4.22;;;;;;;20.02;98.73;99381.31;5087470;28;20028;-73
2023/07/25 05:42:17;;;;;;;17.77;3.80;;;;;;;20.14;97.30;99387.16;5079767;28;20042;-74
2023/07/25 05:44:42;;;;;;;15.35;3.05;;;;;;;20.03;97.59;99382.13;5085568;28;20401;-74
2023/07/25 05:47:08;;;;;;;13.10;3.30;;;;;;;20.13;96.25;99396.47;5077826;28;20056;-74
2023/07/25 05:49:33;;;;;;;10.93;3.13;;;;;;;20.19;95.30;99397.97;5090235;28;20046;-74
2023/07/25 05:51:59;;;;;;;17.98;3.80;;;;;;;20.12;95.01;99396.75;5068583;28;20032;-74
2023/07/25 05:54:24;;;;;;;18.30;3.28;;;;;;;20.07;94.72;99405.03;5087023;28;20028;-74
2023/07/25 05:56:49;;;;;;;17.92;3.70;;;;;;;20.11;94.15;99406.06;5087594;28;20386;-74
2023/07/25 05:59:15;;;;;;;15.68;3.92;;;;;;;20.04;93.88;99400.97;5082089;28;20140;-74
2023/07/25 06:01:40;;;;;;;17.38;3.25;;;;;;;20.08;94.17;99410.19;5076776;28;20099;-74
2023/07/25 06:04:06;;;;;;;15.88;3.58;;;;;;;20.17;93.88;99404.88;5057668;28;20028;-74
2023/07/25 06:06:31;;;;;;;17.80;3.92;;;;;;;20.19;93.74;99402.63;5082229;28;20032;-73
2023/07/25 06:08:57;;;;;;;11.60;3.17;;;;;;;19.94;94.00;99390.19;5074722;28;20132;-73
2023/07/25 06:11:23;;;;;;;13.30;3.08;;;;;;;20.08;93.63;99398.44;5080715;28;20020;-74
2023/07/25 06:13:52;;;;;;;16.40;3.25;;;;;;;20.35;92.66;99400.47;5103446;28;20043;-74
2023/07/25 06:16:18;;;;;;;14.85;3.25;;;;;;;20.33;92.30;99405.41;5091056;28;20025;-74
2023/07/25 06:18:44;;;;;;;17.38;3.70;;;;;;;20.08;92.28;99384.78;5109531;28;20502;-74
2023/07/25 06:21:10;;;;;;;16.92;2.92;;;;;;;20.27;91.72;99399.25;5087742;28;20103;-74
2023/07/25 06:23:35;;;;;;;19.60;4.00;;;;;;;20.21;91.92;99386.78;5077602;28;20043;-74
2023/07/25 06:26:01;;;;;;;16.67;3.28;;;;;;;20.49;91.04;99375.94;5059394;28;20516;-74
2023/07/25 06:28:26;;;;;;;13.27;3.38;;;;;;;20.75;89.96;99403.66;5080208;28;20478;-75
2023/07/25 06:30:52;;;;;;;15.05;3.42;;;;;;;20.69;89.39;99369.31;5060155;28;20395;-74
2023/07/25 06:33:17;;;;;;;13.63;2.97;;;;;;;20.96;87.99;99393.16;5085345;28;20024;-74
2023/07/25 06:35:42;;;;;;;18.65;3.78;;;;;;;20.82;88.13;99388.47;5081716;28;20024;-74
2023/07/25 06:38:08;;;;;;;20.70;4.32;;;;;;;20.73;88.51;99384.00;5076593;28;20032;-75
2023/07/25 06:40:34;;;;;;;15.23;3.42;;;;;;;20.93;86.87;99391.03;5060988;28;20064;-74
2023/07/25 06:43:00;;;;;;;14.23;3.40;;;;;;;20.92;87.01;99392.94;5075902;28;20025;-74
2023/07/25 06:45:25;;;;;;;18.33;4.32;;;;;;;21.25;85.98;99393.66;5059071;28;20055;-73
2023/07/25 06:47:50;;;;;;;16.67;3.35;;;;;;;21.45;84.99;99394.41;5077215;28;20053;-74
2023/07/25 06:50:16;;;;;;;12.98;3.00;;;;;;;21.66;84.36;99394.78;5059223;28;20040;-74
2023/07/25 06:52:41;;;;;;;17.23;3.60;;;;;;;21.49;83.51;99390.75;5075709;28;20123;-75
2023/07/25 06:55:07;;;;;;;12.02;2.90;;;;;;;21.29;84.17;99396.59;5058849;28;20033;-75
2023/07/25 06:57:32;;;;;;;14.15;3.38;;;;;;;20.80;85.32;99381.72;5075696;28;20032;-74
2023/07/25 06:59:58;;;;;;;14.77;3.33;;;;;;;21.23;84.46;99398.66;5076981;28;20028;-75
2023/07/25 07:02:23;;;;;;;12.95;3.55;;;;;;;21.13;84.45;99392.56;5078150;28;20036;-74
2023/07/25 07:04:49;;;;;;;13.93;3.50;;;;;;;21.26;84.63;99391.75;5075561;28;20060;-74
2023/07/25 07:07:14;;;;;;;14.25;3.53;;;;;;;21.15;83.30;99374.72;5075965;28;20028;-74
2023/07/25 07:09:39;;;;;;;10.48;3.03;;;;;;;21.44;82.66;99398.25;5077089;28;20457;-74
2023/07/25 07:12:05;;;;;;;10.43;3.20;;;;;;;21.38;82.11;99400.28;5081661;28;20486;-73
2023/07/25 07:14:30;;;;;;;11.43;3.10;;;;;;;21.41;81.91;99393.41;5079211;28;20509;-75
2023/07/25 07:16:56;;;;;;;10.88;3.35;;;;;;;21.45;82.04;99400.69;5055844;28;20484;-73
2023/07/25 07:19:21;;;;;;;11.07;3.20;;;;;;;21.23;82.56;99409.59;5073740;28;20021;-74
2023/07/25 07:21:47;;;;;;;13.23;3.65;;;;;;;21.21;82.62;99387.19;5080045;28;20032;-74
2023/07/25 07:24:12;;;;;;;14.00;2.92;;;;;;;21.56;81.47;99407.56;5076422;28;20051;-73
2023/07/25 07:26:38;;;;;;;21.00;3.58;;;;;;;21.60;81.79;99412.44;5072415;28;20090;-73
2023/07/25 07:29:03;;;;;;;12.90;3.28;;;;;;;21.72;81.05;99421.75;5040356;28;20101;-74
2023/07/25 07:31:29;;;;;;;16.33;3.33;;;;;;;21.94;79.88;99414.69;5073646;28;20031;-73
2023/07/25 07:34:09;;;;;;;11.60;3.00;;;;;;;22.11;79.08;99411.28;5055266;28;20486;-74
2023/07/25 07:36:34;;;;;;;11.32;3.15;;;;;;;21.85;79.30;99406.38;5072266;28;20067;-73
2023/07/25 07:38:59;;;;;;;13.63;3.20;;;;;;;21.91;79.65;99410.63;5055239;28;20566;-73
2023/07/25 07:41:25;;;;;;;20.17;4.18;;;;;;;22.03;79.37;99413.66;5072881;28;20198;-74
2023/07/25 07:43:50;;;;;;;16.35;4.45;;;;;;;22.07;78.68;99413.84;5054535;28;20032;-74
2023/07/25 07:46:16;;;;;;;10.95;3.00;;;;;;;22.12;77.70;99412.91;5054774;28;20028;-74
2023/07/25 07:48:43;;;;;;;8.68;2.53;;;;;;;22.15;77.97;99420.50;5054364;28;20048;-74
2023/07/25 07:51:08;;;;;;;14.90;2.88;;;;;;;21.87;78.05;99417.84;5072697;28;20028;-74
2023/07/25 07:53:34;;;;;;;11.32;3.55;;;;;;;21.71;79.08;99411.91;5070714;28;20040;-74
2023/07/25 07:56:07;;;;;;;13.35;3.00;;;;;;;21.75;79.33;99414.84;5071252;28;20120;-74
2023/07/25 07:58:32;;;;;;;15.73;3.63;;;;;;;21.85;79.11;99431.03;5071426;28;20028;-74
2023/07/25 08:00:58;;;;;;;10.65;3.20;;;;;;;22.16;77.26;99419.44;5072723;28;20020;-74
2023/07/25 08:03:23;;;;;;;12.38;3.03;;;;;;;21.96;77.86;99432.44;5077014;28;20071;-74
2023/07/25 08:05:56;;;;;;;14.43;4.20;;;;;;;22.00;78.06;99435.38;5070671;28;20063;-74
2023/07/25 08:08:22;;;;;;;14.00;3.60;;;;;;;22.05;77.46;99444.28;5072281;28;20024;-74
2023/07/25 08:10:47;;;;;;;16.05;3.45;;;;;;;21.92;77.26;99442.41;5076466;28;20043;-74
2023/07/25 08:13:13;;;;;;;17.25;4.03;;;;;;;21.71;77.10;99442.00;5072517;28;20032;-74
2023/07/25 08:15:38;;;;;;;19.45;4.00;;;;;;;21.60;77.10;99448.84;5072505;28;20029;-74
2023/07/25 08:18:04;;;;;;;11.90;3.30;;;;;;;21.48;77.61;99443.84;5070310;28;20618;-74
2023/07/25 08:20:29;;;;;;;25.15;4.03;;;;;;;21.64;77.94;99447.09;5071945;28;20039;-73
2023/07/25 08:22:54;;;;;;;11.93;3.00;;;;;;;21.56;78.38;99448.63;5070874;28;20078;-73
2023/07/25 08:25:20;;;;;;;13.55;3.85;;;;;;;21.81;77.64;99447.28;5053431;28;20035;-73
2023/07/25 08:27:45;;;;;;;12.68;3.75;;;;;;;21.56;78.32;99445.91;5054376;28;20036;-74
2023/07/25 08:30:11;;;;;;;18.00;3.50;;;;;;;21.78;77.53;99456.09;5070668;28;20041;-74
2023/07/25 08:32:37;;;;;;;19.77;3.78;;;;;;;21.51;78.37;99448.72;5073745;28;20609;-74
2023/07/25 08:35:02;;;;;;;14.57;2.90;;;;;;;21.43;79.42;99462.31;5090578;28;20032;-74
2023/07/25 08:37:28;;;;;;;18.15;4.03;;;;;;;21.51;80.00;99465.16;5091291;28;20459;-74
2023/07/25 08:39:53;;;;;;;11.95;3.33;;;;;;;21.70;78.75;99456.03;5092910;28;20030;-75
2023/07/25 08:42:19;;;;;;;16.20;3.80;;;;;;;21.86;76.94;99454.59;5073908;28;20115;-75
2023/07/25 08:44:51;;;;;;;13.40;2.92;;;;;;;21.55;76.80;99451.66;5090708;28;20055;-74
2023/07/25 08:47:20;;;;;;;13.20;3.10;;;;;;;21.74;75.97;99459.75;5091873;28;20034;-75
2023/07/25 08:49:51;;;;;;;14.15;3.20;;;;;;;22.22;75.34;99448.34;5074332;28;20062;-75
2023/07/25 08:52:20;;;;;;;11.10;2.90;;;;;;;22.14;75.45;99458.06;5092764;28;20053;-75
2023/07/25 08:54:48;;;;;;;14.35;3.38;;;;;;;22.28;74.79;99456.13;5090566;28;20447;-75
2023/07/25 08:57:18;;;;;;;9.88;2.72;;;;;;;21.91;75.53;99461.88;5090523;28;20372;-74
2023/07/25 08:59:46;;;;;;;15.68;2.92;;;;;;;21.95;75.15;99469.19;5090448;28;20057;-75
2023/07/25 09:02:12;;;;;;;13.52;3.13;;;;;;;21.89;75.71;99467.66;5089867;28;20065;-75
2023/07/25 09:04:38;;;;;;;13.65;3.10;;;;;;;21.79;76.30;99471.44;5090084;28;20063;-74
2023/07/25 09:07:09;;;;;;;14.77;3.25;;;;;;;21.75;76.54;99464.13;5092066;28;20051;-75
2023/07/25 09:12:19;;;;;;;14.55;3.00;;;;;;;21.51;76.26;99465.16;5093677;28;20395;-74
2023/07/25 09:14:45;;;;;;;18.23;3.15;;;;;;;21.46;76.54;99481.69;5089859;28;20055;-74
2023/07/25 09:17:11;;;;;;;17.15;3.58;;;;;;;21.56;76.93;99472.47;5091422;28;20028;-74
2023/07/25 09:19:38;;;;;;;14.32;3.15;;;;;;;21.66;76.59;99464.03;5095118;28;20490;-74
2023/07/25 09:22:04;;;;;;;17.20;4.15;;;;;;;21.69;76.90;99459.84;5092429;28;20097;-74
2023/07/25 09:24:37;;;;;;;11.55;3.33;;;;;;;21.56;75.54;99464.25;5092253;28;20122;-74
2023/07/25 09:27:04;;;;;;;15.30;3.65;;;;;;;21.53;75.53;99462.94;5091109;28;20482;-74
2023/07/25 09:29:30;;;;;;;14.88;3.55;;;;;;;21.91;74.96;99472.81;5089985;28;20031;-74
2023/07/25 09:31:56;;;;;;;13.27;3.35;;;;;;;22.46;73.63;99473.50;5090888;28;20039;-74
2023/07/25 09:34:25;;;;;;;7.82;2.67;;;;;;;22.67;72.44;99473.00;5090063;28;20042;-74
2023/07/25 09:36:51;;;;;;;12.88;3.33;;;;;;;22.79;71.44;99473.28;5073180;28;20062;-74
2023/07/25 09:39:17;;;;;;;13.90;2.85;;;;;;;22.88;70.57;99479.63;5091242;28;20032;-74
2023/07/25 09:41:45;;;;;;;10.80;3.53;;;;;;;22.79;70.42;99478.75;5090350;28;20034;-74
2023/07/25 09:44:11;;;;;;;11.55;2.83;;;;;;;22.17;71.15;99478.59;5089854;28;20024;-74
2023/07/25 09:46:36;;;;;;;10.68;2.80;;;;;;;22.14;70.60;99484.66;5089570;28;20025;-74
2023/07/25 09:49:02;;;;;;;9.43;2.60;;;;;;;22.27;70.77;99486.56;5089496;28;20044;-74
2023/07/25 09:51:27;;;;;;;11.48;2.78;;;;;;;22.44;70.68;99481.22;5089758;28;20120;-74
2023/07/25 09:53:54;;;;;;;11.02;2.40;;;;;;;22.38;70.51;99473.44;5089688;28;20042;-74
2023/07/25 09:56:25;;;;;;;8.68;2.70;;;;;;;22.66;69.62;99487.84;5089114;28;20039;-75
2023/07/25 09:58:51;;;;;;;14.23;3.05;;;;;;;22.93;69.34;99476.75;5090964;28;20047;-74
2023/07/25 10:01:17;;;;;;;11.15;3.22;;;;;;;23.00;69.34;99502.94;5072917;28;20048;-75
2023/07/25 10:03:44;;;;;;;11.02;2.92;;;;;;;22.82;68.82;99491.84;5089670;28;20513;-75
2023/07/25 10:06:10;;;;;;;7.97;2.20;;;;;;;22.48;67.81;99482.25;5090212;28;20028;-74
2023/07/25 10:08:38;;;;;;;12.38;2.80;;;;;;;22.45;68.65;99501.22;5092817;28;20478;-74
2023/07/25 10:11:04;;;;;;;10.40;2.95;;;;;;;22.58;68.86;99503.09;5088936;28;20420;-74
2023/07/25 10:13:32;;;;;;;12.23;2.63;;;;;;;22.57;69.32;99506.97;5090704;28;20016;-74
2023/07/25 10:15:59;;;;;;;11.60;2.70;;;;;;;22.62;68.58;99497.84;5089381;28;20052;-74
2023/07/25 10:18:27;;;;;;;7.68;2.17;;;;;;;22.73;67.37;99515.66;5073123;28;20032;-75
2023/07/25 10:20:54;;;;;;;5.53;1.90;;;;;;;22.34;67.00;99508.88;5089035;28;20105;-75
2023/07/25 10:23:29;;;;;;;8.95;2.30;;;;;;;22.24;66.17;99518.13;5090853;28;20027;-75
2023/07/25 10:25:55;;;;;;;12.55;2.47;;;;;;;22.40;66.25;99520.53;5092281;28;20099;-76
2023/07/25 10:28:22;;;;;;;8.73;2.40;;;;;;;22.59;66.25;99517.66;5091555;28;20028;-76
2023/07/25 10:30:48;;;;;;;11.77;2.58;;;;;;;22.33;66.10;99523.69;5091125;28;20084;-74
2023/07/25 10:33:15;;;;;;;8.10;2.08;;;;;;;22.42;66.26;99532.00;5072579;28;20039;-76
2023/07/25 10:35:54;;;;;;;11.23;2.58;;;;;;;22.66;65.99;99539.94;5089601;28;20040;-75
2023/07/25 10:38:21;;;;;;;8.13;1.73;;;;;;;22.38;66.28;99526.31;5089456;28;20047;-75
2023/07/25 10:40:56;;;;;;;9.02;1.98;;;;;;;22.48;65.33;99538.97;5090752;28;20032;-77
2023/07/25 10:43:22;;;;;;;;;;;;;;;22.28;65.12;99538.34;5092905;28;20034;-76
2023/07/25 10:45:50;;;;;;;9.15;2.30;;;;;;;22.23;65.39;99552.13;5089649;28;19919;-76
2023/07/25 10:48:30;;;;;;;11.25;2.40;;;;;;;22.35;65.33;99548.88;5089392;28;20055;-75
2023/07/25 10:50:56;;;;;;;9.65;2.25;;;;;;;22.29;65.25;99550.09;5091961;28;20036;-75
2023/07/25 10:53:24;;;;;;;7.35;1.90;;;;;;;22.23;65.25;99573.25;5076434;28;20387;-76
2023/07/25 10:56:04;;;;;;;8.65;2.10;;;;;;;22.03;65.80;99568.97;5105308;28;20103;-75
2023/07/25 10:58:30;;;;;;;8.45;2.10;;;;;;;21.94;67.01;99563.41;5114704;28;20062;-75
2023/07/25 11:00:56;;;;;;;11.55;2.40;;;;;;;21.99;67.09;99560.56;5114158;28;20035;-75
2023/07/25 11:03:32;;;;;;;12.18;2.60;;;;;;;21.88;67.39;99570.09;5112640;28;20035;-76
2023/07/25 11:06:07;;;;;;;9.43;1.77;;;;;;;22.10;66.68;99569.38;5112632;28;20403;-76
2023/07/25 11:08:40;;;;;;;9.65;2.40;;;;;;;22.28;66.43;99554.78;5121889;28;20130;-75
2023/07/25 11:11:10;;;;;;;10.63;2.20;;;;;;;22.32;66.37;99554.97;5112353;28;20035;-75
2023/07/25 11:13:37;;;;;;;9.35;2.13;;;;;;;22.25;66.31;99560.88;5092419;28;20513;-76
2023/07/25 11:16:11;;;;;;;13.77;2.38;;;;;;;22.43;65.92;99563.78;5092774;28;20032;-76
2023/07/25 11:18:48;;;;;;;6.90;2.25;;;;;;;22.32;66.95;99565.09;5092383;28;20016;-75
2023/07/25 11:21:14;;;;;;;8.38;2.28;;;;;;;21.96;67.87;99547.47;5092017;28;20047;-75
2023/07/25 11:23:40;;;;;;;10.82;2.70;;;;;;;22.07;66.95;99564.50;5093927;28;20028;-76